Time;durP1;ratioP1;P1;durP2;ratioP2;P2;SDS_P1;SDS_P2;PMS_P1;PMS_P2;Temp;Humidity;BMP_temperature;BMP_pressure;BME280_temperature;BME280_humidity;BME280_pressure;Samples;Min_cycle;Max_cycle;Signal;HPM_P1;HPM_P2
2021/04/12 00:01:58;;;;;;;6.63;3.23;;;;;;;;;;4976650;28;20566;-63
2021/04/12 00:04:28;;;;;;;3.77;3.10;;;;;;;;;;4981986;28;20467;-62
2021/04/12 00:06:56;;;;;;;5.57;3.10;;;;;;;;;;4994355;28;20864;-62
2021/04/12 00:09:27;;;;;;;4.27;2.90;;;;;;;;;;4994682;28;20460;-62
2021/04/12 00:11:57;;;;;;;5.33;2.87;;;;;;;;;;4984652;28;20518;-62
2021/04/12 00:14:25;;;;;;;5.47;3.00;;;;;;;;;;4994844;28;21005;-62
2021/04/12 00:16:54;;;;;;;7.00;2.93;;;;;;;;;;4981696;28;20482;-61
2021/04/12 00:19:23;;;;;;;4.10;2.57;;;;;;;;;;4983797;28;20461;-61
2021/04/12 00:21:51;;;;;;;2.60;2.40;;;;;;;;;;4993613;28;20989;-62
2021/04/12 00:24:20;;;;;;;3.07;2.50;;;;;;;;;;4992575;28;20462;-62
2021/04/12 00:26:50;;;;;;;4.47;2.30;;;;;;;;;;4994587;28;20478;-62
2021/04/12 00:29:21;;;;;;;6.00;2.67;;;;;;;;;;4991604;28;20462;-62
2021/04/12 00:31:50;;;;;;;2.60;2.40;;;;;;;;;;4989348;28;20470;-62
2021/04/12 00:34:21;;;;;;;3.30;2.40;;;;;;;;;;4992447;28;20514;-61
2021/04/12 00:36:50;;;;;;;3.87;2.53;;;;;;;;;;4994177;28;20545;-62
2021/04/12 00:39:19;;;;;;;4.30;3.00;;;;;;;;;;4994801;28;20491;-62
2021/04/12 00:42:07;;;;;;;5.77;2.80;;;;;;;;;;4993378;28;20557;-61
2021/04/12 00:44:50;;;;;;;3.30;2.70;;;;;;;;;;4977800;28;20443;-61
2021/04/12 00:47:20;;;;;;;4.70;3.10;;;;;;;;;;4991466;28;20537;-62
2021/04/12 00:49:57;;;;;;;7.07;3.17;;;;;;;;;;4976031;28;20487;-62
2021/04/12 00:52:35;;;;;;;3.10;2.73;;;;;;;;;;4982371;28;20463;-62
2021/04/12 00:55:16;;;;;;;3.30;3.00;;;;;;;;;;4990956;28;20516;-62
2021/04/12 00:57:50;;;;;;;5.43;3.53;;;;;;;;;;4978844;28;21035;-62
2021/04/12 01:00:20;;;;;;;6.80;3.20;;;;;;;;;;4994823;28;20468;-62
2021/04/12 01:02:53;;;;;;;4.77;4.00;;;;;;;;;;4993018;28;20469;-62
2021/04/12 01:05:25;;;;;;;3.87;3.50;;;;;;;;;;4992863;28;20493;-62
2021/04/12 01:08:06;;;;;;;4.67;3.17;;;;;;;;;;4991798;28;21033;-61
2021/04/12 01:10:41;;;;;;;4.37;3.70;;;;;;;;;;4994737;28;20469;-62
2021/04/12 01:13:20;;;;;;;6.47;3.30;;;;;;;;;;4993653;28;20480;-62
2021/04/12 01:16:13;;;;;;;5.30;3.53;;;;;;;;;;4990307;28;20845;-62
2021/04/12 01:18:57;;;;;;;6.30;3.70;;;;;;;;;;4975289;28;20498;-62
2021/04/12 01:21:41;;;;;;;3.97;2.80;;;;;;;;;;4988932;28;20490;-62
2021/04/12 01:24:25;;;;;;;3.17;2.90;;;;;;;;;;4991943;28;21088;-62
2021/04/12 01:27:06;;;;;;;5.20;2.87;;;;;;;;;;4992344;28;20597;-63
2021/04/12 01:29:53;;;;;;;4.50;3.10;;;;;;;;;;4975420;28;20550;-62
2021/04/12 01:32:53;;;;;;;5.90;2.90;;;;;;;;;;4987362;28;20850;-63
2021/04/12 01:35:37;;;;;;;3.50;3.20;;;;;;;;;;4993411;28;20446;-62
2021/04/12 01:38:17;;;;;;;10.23;4.30;;;;;;;;;;4954787;28;20896;-62
2021/04/12 01:40:53;;;;;;;3.40;3.10;;;;;;;;;;4993310;28;20549;-62
2021/04/12 01:43:20;;;;;;;3.33;3.00;;;;;;;;;;4980697;28;20471;-62
2021/04/12 01:45:49;;;;;;;3.83;3.17;;;;;;;;;;4992146;28;20815;-62
2021/04/12 01:48:22;;;;;;;5.73;3.77;;;;;;;;;;4993154;28;20467;-62
2021/04/12 01:50:57;;;;;;;4.13;3.20;;;;;;;;;;4980715;28;20494;-62
2021/04/12 01:53:28;;;;;;;4.20;3.40;;;;;;;;;;4992846;28;20824;-62
2021/04/12 01:56:07;;;;;;;4.23;3.50;;;;;;;;;;4992259;28;21012;-62
2021/04/12 01:58:46;;;;;;;4.40;3.43;;;;;;;;;;4990411;28;20474;-62
2021/04/12 02:01:23;;;;;;;3.30;3.00;;;;;;;;;;4993726;28;20470;-62
2021/04/12 02:04:00;;;;;;;6.50;3.47;;;;;;;;;;4989268;28;20548;-63
2021/04/12 02:06:50;;;;;;;3.70;2.97;;;;;;;;;;4985266;28;20466;-63
2021/04/12 02:09:31;;;;;;;5.00;3.60;;;;;;;;;;4968872;28;20489;-62
2021/04/12 02:12:05;;;;;;;4.57;3.30;;;;;;;;;;4987461;28;20548;-62
2021/04/12 02:14:40;;;;;;;3.80;3.50;;;;;;;;;;4993842;28;20486;-62
2021/04/12 02:17:13;;;;;;;3.90;3.07;;;;;;;;;;4992681;28;20465;-63
2021/04/12 02:19:44;;;;;;;3.30;3.00;;;;;;;;;;4987113;28;20456;-62
2021/04/12 02:22:29;;;;;;;5.73;3.20;;;;;;;;;;4994015;28;20802;-62
2021/04/12 02:25:02;;;;;;;4.90;3.40;;;;;;;;;;4990385;28;20465;-62
2021/04/12 02:27:32;;;;;;;6.13;3.87;;;;;;;;;;4992665;28;20478;-63
2021/04/12 02:30:03;;;;;;;7.07;4.20;;;;;;;;;;4985009;28;20923;-63
2021/04/12 02:32:45;;;;;;;3.37;3.07;;;;;;;;;;4992606;28;20470;-62
2021/04/12 02:35:16;;;;;;;6.70;3.37;;;;;;;;;;4984554;28;20494;-62
2021/04/12 02:37:50;;;;;;;8.57;3.60;;;;;;;;;;4993105;28;20941;-62
2021/04/12 02:40:32;;;;;;;6.53;3.63;;;;;;;;;;4990633;28;20927;-62
2021/04/12 02:43:04;;;;;;;4.27;3.30;;;;;;;;;;4971954;28;20467;-62
2021/04/12 02:45:33;;;;;;;6.30;3.80;;;;;;;;;;4990590;28;20529;-62
2021/04/12 02:48:04;;;;;;;4.67;3.57;;;;;;;;;;4980669;28;20970;-62
2021/04/12 02:50:38;;;;;;;4.53;3.33;;;;;;;;;;4992177;28;20505;-62
2021/04/12 02:53:10;;;;;;;7.67;3.30;;;;;;;;;;4988568;28;20541;-62
2021/04/12 02:55:45;;;;;;;3.97;3.23;;;;;;;;;;4989066;28;20473;-62
2021/04/12 02:58:32;;;;;;;3.80;3.30;;;;;;;;;;4987680;28;20474;-62
2021/04/12 03:01:18;;;;;;;4.50;3.13;;;;;;;;;;4992312;28;20466;-62
2021/04/12 03:03:52;;;;;;;5.57;2.93;;;;;;;;;;4987636;28;20462;-62
2021/04/12 03:06:37;;;;;;;4.50;3.23;;;;;;;;;;4990228;28;20457;-62
2021/04/12 03:09:11;;;;;;;5.70;3.60;;;;;;;;;;4963800;28;20489;-62
2021/04/12 03:11:49;;;;;;;5.33;3.50;;;;;;;;;;4981530;28;20679;-62
2021/04/12 03:14:34;;;;;;;5.67;3.67;;;;;;;;;;4992231;28;20492;-62
2021/04/12 03:17:18;;;;;;;4.13;3.20;;;;;;;;;;4989918;28;20478;-62
2021/04/12 03:20:02;;;;;;;5.20;3.57;;;;;;;;;;4972233;28;20483;-62
2021/04/12 03:22:40;;;;;;;5.07;3.60;;;;;;;;;;4987034;28;20472;-63
2021/04/12 03:25:15;;;;;;;3.90;3.30;;;;;;;;;;4978842;28;20459;-62
2021/04/12 03:27:52;;;;;;;6.07;3.13;;;;;;;;;;4991793;28;20501;-63
2021/04/12 03:30:28;;;;;;;3.47;3.13;;;;;;;;;;4974508;28;20545;-62
2021/04/12 03:33:00;;;;;;;6.57;3.60;;;;;;;;;;4990615;28;20808;-63
2021/04/12 03:35:33;;;;;;;5.43;3.57;;;;;;;;;;4987236;28;20524;-64
2021/04/12 03:38:12;;;;;;;4.13;3.47;;;;;;;;;;4992307;28;20476;-63
2021/04/12 03:40:41;;;;;;;4.40;3.80;;;;;;;;;;4988773;28;20482;-63
2021/04/12 03:43:19;;;;;;;7.10;3.63;;;;;;;;;;4988911;28;20480;-63
2021/04/12 03:46:04;;;;;;;5.00;3.30;;;;;;;;;;4990771;28;20446;-63
2021/04/12 03:48:46;;;;;;;5.33;3.30;;;;;;;;;;4972813;28;20549;-63
2021/04/12 03:51:33;;;;;;;4.40;3.20;;;;;;;;;;4986147;28;20568;-63
2021/04/12 03:54:12;;;;;;;6.70;3.83;;;;;;;;;;4984568;28;20492;-62
2021/04/12 03:56:53;;;;;;;5.13;3.97;;;;;;;;;;4982943;28;20466;-62
2021/04/12 03:59:23;;;;;;;5.60;3.90;;;;;;;;;;4988588;28;20465;-62
2021/04/12 04:02:17;;;;;;;6.23;3.90;;;;;;;;;;5007930;23;20502;-64
2021/04/12 04:04:48;;;;;;;6.70;4.30;;;;;;;;;;4987668;28;20509;-64
2021/04/12 04:07:30;;;;;;;6.53;4.77;;;;;;;;;;4974028;28;20534;-63
2021/04/12 04:10:12;;;;;;;4.90;4.20;;;;;;;;;;5002633;28;20465;-63
2021/04/12 04:12:44;;;;;;;9.40;5.47;;;;;;;;;;5006881;28;20464;-64
2021/04/12 04:15:34;;;;;;;6.53;4.57;;;;;;;;;;4990350;28;20888;-63
2021/04/12 04:18:19;;;;;;;5.50;5.00;;;;;;;;;;4974457;28;20893;-64
2021/04/12 04:21:00;;;;;;;7.83;5.30;;;;;;;;;;5009472;28;20538;-65
2021/04/12 04:23:40;;;;;;;6.40;5.33;;;;;;;;;;4964976;28;20474;-66
2021/04/12 04:26:28;;;;;;;6.80;5.93;;;;;;;;;;5010775;28;20531;-63
2021/04/12 04:29:15;;;;;;;8.70;5.57;;;;;;;;;;5010050;28;20472;-66
2021/04/12 04:31:54;;;;;;;7.10;5.33;;;;;;;;;;4965465;28;20474;-65
2021/04/12 04:34:31;;;;;;;6.77;5.60;;;;;;;;;;4984659;28;20508;-64
2021/04/12 04:37:16;;;;;;;5.53;4.87;;;;;;;;;;4990717;28;20526;-64
2021/04/12 04:39:55;;;;;;;6.83;5.87;;;;;;;;;;4989433;28;20462;-64
2021/04/12 04:42:52;;;;;;;6.67;5.97;;;;;;;;;;4988235;28;20489;-64
2021/04/12 04:45:25;;;;;;;7.40;5.63;;;;;;;;;;4995061;28;20874;-64
2021/04/12 04:48:00;;;;;;;8.90;6.00;;;;;;;;;;5008071;28;20443;-63
2021/04/12 04:50:46;;;;;;;6.30;5.70;;;;;;;;;;4996748;28;20493;-64
2021/04/12 04:53:22;;;;;;;6.47;5.90;;;;;;;;;;4982781;28;21041;-64
2021/04/12 04:55:56;;;;;;;7.53;5.50;;;;;;;;;;4998840;28;20457;-64
2021/04/12 04:58:27;;;;;;;6.90;5.23;;;;;;;;;;4993887;28;20465;-64
2021/04/12 05:00:55;;;;;;;7.93;5.83;;;;;;;;;;4999425;28;20522;-64
2021/04/12 05:03:45;;;;;;;9.57;6.00;;;;;;;;;;4993997;28;20580;-66
2021/04/12 05:06:30;;;;;;;5.53;5.00;;;;;;;;;;4994206;28;20480;-64
2021/04/12 05:09:13;;;;;;;12.70;6.10;;;;;;;;;;4994987;28;20512;-63
2021/04/12 05:11:51;;;;;;;7.87;5.20;;;;;;;;;;4997141;28;20547;-66
2021/04/12 05:14:38;;;;;;;6.63;4.97;;;;;;;;;;4984497;28;20588;-64
2021/04/12 05:17:23;;;;;;;7.63;5.67;;;;;;;;;;4993328;28;20446;-67
2021/04/12 05:19:55;;;;;;;6.83;4.87;;;;;;;;;;4976630;28;20517;-66
2021/04/12 05:22:31;;;;;;;6.40;4.70;;;;;;;;;;4998605;28;20461;-65
2021/04/12 05:25:03;;;;;;;6.43;4.50;;;;;;;;;;5008600;28;20538;-66
2021/04/12 05:27:48;;;;;;;7.93;4.60;;;;;;;;;;4994169;28;20460;-65
2021/04/12 05:30:24;;;;;;;6.23;4.93;;;;;;;;;;5001632;28;20562;-65
2021/04/12 05:32:54;;;;;;;5.43;4.93;;;;;;;;;;4996886;28;20549;-65
2021/04/12 05:35:28;;;;;;;8.93;5.67;;;;;;;;;;4992805;28;20577;-65
2021/04/12 05:38:13;;;;;;;10.77;4.80;;;;;;;;;;4983469;28;20454;-65
2021/04/12 05:41:00;;;;;;;5.20;4.70;;;;;;;;;;4986129;28;20485;-65
2021/04/12 05:43:32;;;;;;;6.00;4.67;;;;;;;;;;5009036;28;20781;-65
2021/04/12 05:46:10;;;;;;;6.37;5.60;;;;;;;;;;5002413;28;20471;-66
2021/04/12 05:48:53;;;;;;;6.17;4.80;;;;;;;;;;4995376;28;21016;-66
2021/04/12 05:51:29;;;;;;;5.37;4.80;;;;;;;;;;4986024;28;20513;-66
2021/04/12 05:54:08;;;;;;;8.60;2.63;;;;;;;;;;4988067;28;20497;-67
2021/04/12 05:56:40;;;;;;;5.37;2.07;;;;;;;;;;4993909;28;21124;-67
2021/04/12 05:59:24;;;;;;;5.67;2.40;;;;;;;;;;5002255;28;20821;-67
2021/04/12 06:01:56;;;;;;;3.97;2.27;;;;;;;;;;4993493;28;20490;-67
2021/04/12 06:04:28;;;;;;;4.90;2.10;;;;;;;;;;5001230;28;20457;-67
2021/04/12 06:07:12;;;;;;;5.67;2.60;;;;;;;;;;4996661;28;20992;-67
2021/04/12 06:09:53;;;;;;;2.90;2.30;;;;;;;;;;4987957;28;20466;-67
2021/04/12 06:12:38;;;;;;;5.90;2.00;;;;;;;;;;4996664;28;20461;-67
2021/04/12 06:15:22;;;;;;;5.93;2.00;;;;;;;;;;4993846;28;20562;-67
2021/04/12 06:17:52;;;;;;;3.60;1.97;;;;;;;;;;4987875;28;20519;-67
2021/04/12 06:20:27;;;;;;;4.07;1.70;;;;;;;;;;4993125;28;20898;-67
2021/04/12 06:23:06;;;;;;;3.00;1.60;;;;;;;;;;4982202;28;20865;-67
2021/04/12 06:25:54;;;;;;;4.43;1.63;;;;;;;;;;5001005;28;20470;-67
2021/04/12 06:28:30;;;;;;;3.00;1.40;;;;;;;;;;4995586;28;20502;-68
2021/04/12 06:31:08;;;;;;;3.40;2.07;;;;;;;;;;4994752;28;20548;-67
2021/04/12 06:33:58;;;;;;;4.43;1.73;;;;;;;;;;5007000;28;20894;-67
2021/04/12 06:36:48;;;;;;;3.63;1.47;;;;;;;;;;4992992;28;20446;-68
2021/04/12 06:39:31;;;;;;;2.00;1.33;;;;;;;;;;4983003;28;20505;-67
2021/04/12 06:42:17;;;;;;;3.17;1.60;;;;;;;;;;4982026;28;20494;-68
2021/04/12 06:45:02;;;;;;;3.27;1.50;;;;;;;;;;4992359;28;20584;-68
2021/04/12 06:47:37;;;;;;;3.10;1.93;;;;;;;;;;4990361;28;20541;-67
2021/04/12 06:50:15;;;;;;;4.70;2.73;;;;;;;;;;4989455;28;20632;-65
2021/04/12 06:52:58;;;;;;;6.53;3.73;;;;;;;;;;4993183;28;20450;-66
2021/04/12 06:55:31;;;;;;;5.83;3.77;;;;;;;;;;4991713;28;20486;-65
2021/04/12 06:58:26;;;;;;;4.87;3.57;;;;;;;;;;4992097;28;20537;-65
2021/04/12 07:01:02;;;;;;;4.27;3.47;;;;;;;;;;4991714;28;21061;-63
2021/04/12 07:04:02;;;;;;;8.40;3.40;;;;;;;;;;4982865;28;20450;-66
2021/04/12 07:06:42;;;;;;;5.03;3.60;;;;;;;;;;4983033;28;20537;-64
2021/04/12 07:09:27;;;;;;;4.83;3.33;;;;;;;;;;4979214;28;20525;-65
2021/04/12 07:12:02;;;;;;;5.97;3.37;;;;;;;;;;4988554;28;20474;-65
2021/04/12 07:14:47;;;;;;;3.90;3.00;;;;;;;;;;4992106;28;20597;-65
2021/04/12 07:17:48;;;;;;;4.33;3.47;;;;;;;;;;4989145;28;20498;-65
2021/04/12 07:20:32;;;;;;;9.00;3.27;;;;;;;;;;4972926;28;20477;-66
2021/04/12 07:23:25;;;;;;;5.47;3.27;;;;;;;;;;4978262;28;20451;-65
2021/04/12 07:26:11;;;;;;;7.27;3.60;;;;;;;;;;4944511;28;20996;-64
2021/04/12 07:28:59;;;;;;;6.00;2.87;;;;;;;;;;4989024;28;20443;-66
2021/04/12 07:31:45;;;;;;;6.13;3.30;;;;;;;;;;4980873;28;20554;-65
2021/04/12 07:34:25;;;;;;;3.93;2.90;;;;;;;;;;4987954;28;20816;-65
2021/04/12 07:37:22;;;;;;;6.23;3.73;;;;;;;;;;4987396;28;20474;-67
2021/04/12 07:40:06;;;;;;;3.77;3.00;;;;;;;;;;4987341;28;20537;-65
2021/04/12 07:42:52;;;;;;;6.73;4.00;;;;;;;;;;4991525;28;20458;-65
2021/04/12 07:45:43;;;;;;;4.50;2.60;;;;;;;;;;4989300;28;20496;-66
2021/04/12 07:48:21;;;;;;;4.77;2.73;;;;;;;;;;4990516;28;22095;-66
2021/04/12 07:51:06;;;;;;;7.50;3.03;;;;;;;;;;4991032;28;20466;-67
2021/04/12 07:53:54;;;;;;;5.20;3.20;;;;;;;;;;4984938;28;20455;-65
2021/04/12 07:56:55;;;;;;;6.33;3.10;;;;;;;;;;4960177;28;20501;-67
2021/04/12 07:59:43;;;;;;;4.63;2.70;;;;;;;;;;5004586;28;20529;-65
2021/04/12 08:02:29;;;;;;;6.00;3.10;;;;;;;;;;4994911;28;20443;-65
2021/04/12 08:05:15;;;;;;;3.57;2.40;;;;;;;;;;4980965;28;20431;-66
2021/04/12 08:08:11;;;;;;;6.57;2.90;;;;;;;;;;4988709;28;20450;-65
2021/04/12 08:11:04;;;;;;;3.53;3.10;;;;;;;;;;4954242;29;20531;-65
2021/04/12 08:13:51;;;;;;;5.00;2.87;;;;;;;;;;4993114;28;20826;-65
2021/04/12 08:16:41;;;;;;;4.83;2.90;;;;;;;;;;4992070;28;20450;-65
2021/04/12 08:19:28;;;;;;;6.00;3.30;;;;;;;;;;4985440;28;20458;-65
2021/04/12 08:22:16;;;;;;;4.33;3.03;;;;;;;;;;4995341;28;20474;-65
2021/04/12 08:24:52;;;;;;;4.63;2.73;;;;;;;;;;4996069;28;20442;-65
2021/04/12 08:27:37;;;;;;;6.00;2.67;;;;;;;;;;4980175;28;20893;-65
2021/04/12 08:30:35;;;;;;;3.40;2.30;;;;;;;;;;4988695;28;20493;-65
2021/04/12 08:33:30;;;;;;;5.50;2.70;;;;;;;;;;4995849;28;20431;-66
2021/04/12 08:36:15;;;;;;;5.67;2.53;;;;;;;;;;4995392;28;20426;-65
2021/04/12 08:38:46;;;;;;;7.97;3.10;;;;;;;;;;4995112;28;20455;-66
2021/04/12 08:41:32;;;;;;;5.43;2.80;;;;;;;;;;4995413;28;20568;-65
2021/04/12 08:44:17;;;;;;;5.37;2.30;;;;;;;;;;4982357;28;20457;-66
2021/04/12 08:47:11;;;;;;;5.20;2.60;;;;;;;;;;4994648;28;20446;-67
2021/04/12 08:50:00;;;;;;;5.47;3.20;;;;;;;;;;4994780;28;20434;-66
2021/04/12 08:52:50;;;;;;;4.20;1.57;;;;;;;;;;4994876;28;20509;-67
2021/04/12 08:55:31;;;;;;;4.97;2.40;;;;;;;;;;4994895;28;20490;-66
2021/04/12 08:58:10;;;;;;;3.50;2.17;;;;;;;;;;4950621;28;20461;-68
2021/04/12 09:00:55;;;;;;;3.43;2.33;;;;;;;;;;4995124;28;20539;-66
2021/04/12 09:03:37;;;;;;;4.80;2.70;;;;;;;;;;4994334;28;20453;-66
2021/04/12 09:06:32;;;;;;;4.43;2.20;;;;;;;;;;4995828;28;20462;-66
2021/04/12 09:09:01;;;;;;;2.40;1.80;;;;;;;;;;5012765;28;20508;-67
2021/04/12 09:11:46;;;;;;;2.47;1.90;;;;;;;;;;5001290;28;20471;-66
2021/04/12 09:14:23;;;;;;;3.07;1.90;;;;;;;;;;4999171;28;21009;-67
2021/04/12 09:17:11;;;;;;;4.67;2.40;;;;;;;;;;4996906;28;20450;-68
2021/04/12 09:19:44;;;;;;;3.87;2.03;;;;;;;;;;4959267;28;20453;-66
2021/04/12 09:22:30;;;;;;;3.53;2.13;;;;;;;;;;4991990;28;20476;-66
2021/04/12 09:25:05;;;;;;;2.40;1.60;;;;;;;;;;5003920;28;20485;-69
2021/04/12 09:27:47;;;;;;;2.60;1.50;;;;;;;;;;4995743;28;20553;-67
2021/04/12 09:30:32;;;;;;;4.73;1.50;;;;;;;;;;4989443;28;20467;-67
2021/04/12 09:33:23;;;;;;;3.50;1.70;;;;;;;;;;4988788;28;20450;-67
2021/04/12 09:36:07;;;;;;;4.97;1.40;;;;;;;;;;4978274;28;20574;-65
2021/04/12 09:38:48;;;;;;;2.70;1.40;;;;;;;;;;4991440;28;20455;-67
2021/04/12 09:41:39;;;;;;;2.83;1.67;;;;;;;;;;5001885;28;20479;-67
2021/04/12 09:44:25;;;;;;;4.27;2.50;;;;;;;;;;4993320;28;20430;-67
2021/04/12 09:47:10;;;;;;;3.83;2.20;;;;;;;;;;4993552;28;20446;-66
2021/04/12 09:49:52;;;;;;;3.30;2.17;;;;;;;;;;4962862;28;20449;-67
2021/04/12 09:52:36;;;;;;;4.07;1.90;;;;;;;;;;4992979;28;20457;-68
2021/04/12 09:55:12;;;;;;;3.20;1.60;;;;;;;;;;4993252;28;20498;-67
2021/04/12 09:57:54;;;;;;;4.37;2.10;;;;;;;;;;4992603;28;20450;-67
2021/04/12 10:00:41;;;;;;;3.37;2.07;;;;;;;;;;5014081;23;20587;-68
2021/04/12 10:03:18;;;;;;;3.50;1.77;;;;;;;;;;4969029;28;20467;-65
2021/04/12 10:05:59;;;;;;;4.33;2.20;;;;;;;;;;4977504;28;20470;-64
2021/04/12 10:08:29;;;;;;;3.80;1.70;;;;;;;;;;4971439;28;20455;-64
2021/04/12 10:10:59;;;;;;;3.33;2.20;;;;;;;;;;4973558;28;21066;-65
2021/04/12 10:13:33;;;;;;;2.00;1.73;;;;;;;;;;4973844;28;20968;-65
2021/04/12 10:16:09;;;;;;;3.90;2.20;;;;;;;;;;4973805;28;20523;-65
2021/04/12 10:18:46;;;;;;;2.90;1.70;;;;;;;;;;4974801;28;20529;-65
2021/04/12 10:21:26;;;;;;;4.70;1.70;;;;;;;;;;4973861;28;20860;-65
2021/04/12 10:23:53;;;;;;;3.40;1.60;;;;;;;;;;4973595;28;20530;-64
2021/04/12 10:26:26;;;;;;;2.57;1.90;;;;;;;;;;4973191;28;20462;-66
2021/04/12 10:28:56;;;;;;;2.90;1.40;;;;;;;;;;4987309;28;20465;-66
2021/04/12 10:31:27;;;;;;;2.37;1.30;;;;;;;;;;4985960;28;20566;-66
2021/04/12 10:34:02;;;;;;;2.37;1.60;;;;;;;;;;4974224;28;20487;-66
2021/04/12 10:36:32;;;;;;;4.20;1.90;;;;;;;;;;4973325;28;20505;-66
2021/04/12 10:39:00;;;;;;;3.50;1.60;;;;;;;;;;4973482;28;20505;-66
2021/04/12 10:41:30;;;;;;;2.90;1.40;;;;;;;;;;4975076;28;20478;-66
2021/04/12 10:44:00;;;;;;;2.00;1.47;;;;;;;;;;4973166;28;20466;-66
2021/04/12 10:46:29;;;;;;;1.90;0.93;;;;;;;;;;4973096;28;20550;-67
2021/04/12 10:48:59;;;;;;;2.07;1.20;;;;;;;;;;4973354;28;20461;-66
2021/04/12 10:51:29;;;;;;;3.87;1.73;;;;;;;;;;4973328;28;20479;-64
2021/04/12 10:54:23;;;;;;;3.60;1.50;;;;;;;;;;4973206;28;20969;-63
2021/04/12 10:56:52;;;;;;;2.13;1.50;;;;;;;;;;4973091;28;20539;-63
2021/04/12 10:59:45;;;;;;;2.13;1.50;;;;;;;;;;4976768;28;20458;-62
2021/04/12 11:02:17;;;;;;;2.57;1.40;;;;;;;;;;4989097;28;20553;-63
2021/04/12 11:04:53;;;;;;;2.90;1.87;;;;;;;;;;4981558;28;20494;-63
2021/04/12 11:07:22;;;;;;;2.70;1.93;;;;;;;;;;4972242;28;20454;-63
2021/04/12 11:09:59;;;;;;;3.10;2.07;;;;;;;;;;4979554;28;20459;-63
2021/04/12 11:12:46;;;;;;;3.50;1.83;;;;;;;;;;4974297;28;20511;-63
2021/04/12 11:15:26;;;;;;;2.80;2.10;;;;;;;;;;4969361;28;20803;-63
2021/04/12 11:17:59;;;;;;;4.10;2.40;;;;;;;;;;4974229;28;20451;-65
2021/04/12 11:20:29;;;;;;;2.27;2.17;;;;;;;;;;4991673;28;21019;-62
2021/04/12 11:22:58;;;;;;;1.80;1.70;;;;;;;;;;4966298;28;20571;-62
2021/04/12 11:25:31;;;;;;;2.00;1.87;;;;;;;;;;4971731;28;20959;-62
2021/04/12 11:28:05;;;;;;;2.00;1.80;;;;;;;;;;4975905;28;20542;-63
2021/04/12 11:30:35;;;;;;;2.00;1.90;;;;;;;;;;4972450;28;20479;-63
2021/04/12 11:33:11;;;;;;;2.80;2.50;;;;;;;;;;4972985;28;20478;-66
2021/04/12 11:35:42;;;;;;;1.87;1.77;;;;;;;;;;4971261;28;20479;-66
2021/04/12 11:38:11;;;;;;;3.17;2.10;;;;;;;;;;4967680;28;20451;-64
2021/04/12 11:40:40;;;;;;;2.33;2.13;;;;;;;;;;4966019;28;20493;-63
2021/04/12 11:43:11;;;;;;;2.37;2.17;;;;;;;;;;4973683;28;20547;-63
2021/04/12 11:45:43;;;;;;;2.50;2.17;;;;;;;;;;4973122;28;20534;-64
2021/04/12 11:48:13;;;;;;;2.50;2.30;;;;;;;;;;4976181;28;20460;-65
2021/04/12 11:50:44;;;;;;;3.00;2.70;;;;;;;;;;4973232;28;20471;-63
2021/04/12 11:53:21;;;;;;;3.30;2.40;;;;;;;;;;4972869;28;20921;-63
2021/04/12 11:55:54;;;;;;;2.57;2.37;;;;;;;;;;4972692;28;20561;-63
2021/04/12 11:58:23;;;;;;;2.73;1.90;;;;;;;;;;4978768;28;20451;-62
2021/04/12 12:00:59;;;;;;;3.30;2.53;;;;;;;;;;4979318;28;20494;-63
2021/04/12 12:03:48;;;;;;;3.30;1.90;;;;;;;;;;4979535;28;20490;-64
2021/04/12 12:06:28;;;;;;;2.77;1.80;;;;;;;;;;4978177;28;20479;-62
2021/04/12 12:08:57;;;;;;;2.50;1.50;;;;;;;;;;4974321;28;20447;-65
2021/04/12 12:11:31;;;;;;;2.80;1.77;;;;;;;;;;4974933;28;20467;-64
2021/04/12 12:14:01;;;;;;;2.40;2.20;;;;;;;;;;4972862;28;21017;-64
2021/04/12 12:16:32;;;;;;;3.00;2.27;;;;;;;;;;4963329;28;20464;-63
2021/04/12 12:19:00;;;;;;;3.13;2.13;;;;;;;;;;4972994;28;20823;-64
2021/04/12 12:21:28;;;;;;;2.47;1.90;;;;;;;;;;4972587;28;20577;-64
2021/04/12 12:24:00;;;;;;;3.00;2.37;;;;;;;;;;4967269;28;20456;-63
2021/04/12 12:26:28;;;;;;;2.40;2.17;;;;;;;;;;4964207;28;20486;-63
2021/04/12 12:29:05;;;;;;;4.03;1.70;;;;;;;;;;4973001;28;20474;-63
2021/04/12 12:31:35;;;;;;;3.37;2.20;;;;;;;;;;4969627;28;20471;-63
2021/04/12 12:34:13;;;;;;;3.20;2.10;;;;;;;;;;4962926;28;20998;-63
2021/04/12 12:36:43;;;;;;;3.50;2.23;;;;;;;;;;4972307;28;20898;-63
2021/04/12 12:39:10;;;;;;;4.53;2.20;;;;;;;;;;4972045;28;20820;-64
2021/04/12 12:41:38;;;;;;;2.70;1.47;;;;;;;;;;4964714;28;20488;-64
2021/04/12 12:44:06;;;;;;;2.10;1.60;;;;;;;;;;4961184;28;20562;-64
2021/04/12 12:46:35;;;;;;;3.13;1.73;;;;;;;;;;4975802;28;20503;-63
2021/04/12 12:49:03;;;;;;;2.23;1.50;;;;;;;;;;4975231;28;20454;-64
2021/04/12 12:51:31;;;;;;;4.33;1.87;;;;;;;;;;4976117;28;20525;-63
2021/04/12 12:54:02;;;;;;;1.40;1.30;;;;;;;;;;4975945;28;20518;-64
2021/04/12 12:56:30;;;;;;;4.17;2.17;;;;;;;;;;4975577;28;20447;-63
2021/04/12 12:58:58;;;;;;;3.57;2.10;;;;;;;;;;4976383;28;20451;-63
2021/04/12 13:01:29;;;;;;;3.57;2.77;;;;;;;;;;4975479;28;20475;-63
2021/04/12 13:04:06;;;;;;;2.37;2.17;;;;;;;;;;4974411;28;20455;-63
2021/04/12 13:06:33;;;;;;;3.20;1.93;;;;;;;;;;4976100;28;20679;-63
2021/04/12 13:09:02;;;;;;;3.43;2.20;;;;;;;;;;4976685;28;20451;-63
2021/04/12 13:11:33;;;;;;;4.03;2.10;;;;;;;;;;4974369;28;20475;-63
2021/04/12 13:14:10;;;;;;;2.60;2.03;;;;;;;;;;4974935;28;20959;-63
2021/04/12 13:16:37;;;;;;;5.20;1.90;;;;;;;;;;4967875;28;20447;-63
2021/04/12 13:19:05;;;;;;;3.00;2.10;;;;;;;;;;4975723;28;20473;-63
2021/04/12 13:21:35;;;;;;;3.30;1.97;;;;;;;;;;4974470;28;20574;-63
2021/04/12 13:24:11;;;;;;;2.50;1.73;;;;;;;;;;4975969;28;20984;-63
2021/04/12 13:26:42;;;;;;;2.47;1.40;;;;;;;;;;4972356;28;20462;-63
2021/04/12 13:29:11;;;;;;;3.73;1.67;;;;;;;;;;4975163;28;20448;-63
2021/04/12 13:31:40;;;;;;;2.50;1.50;;;;;;;;;;4974801;28;20998;-63
2021/04/12 13:34:11;;;;;;;1.90;1.50;;;;;;;;;;4975400;28;20848;-64
2021/04/12 13:36:39;;;;;;;2.27;1.60;;;;;;;;;;4971777;28;20974;-63
2021/04/12 13:39:08;;;;;;;3.73;2.30;;;;;;;;;;4979318;28;20845;-63
2021/04/12 13:41:37;;;;;;;2.53;2.10;;;;;;;;;;4975035;28;20486;-63
2021/04/12 13:44:07;;;;;;;2.50;1.70;;;;;;;;;;4975156;28;20450;-63
2021/04/12 13:46:36;;;;;;;2.20;1.57;;;;;;;;;;4974375;28;20448;-63
2021/04/12 13:49:05;;;;;;;2.67;1.60;;;;;;;;;;4976144;28;20455;-63
2021/04/12 13:51:36;;;;;;;2.83;1.67;;;;;;;;;;4975944;28;20478;-63
2021/04/12 13:54:06;;;;;;;2.57;1.67;;;;;;;;;;4974856;28;20451;-63
2021/04/12 13:56:41;;;;;;;1.73;1.50;;;;;;;;;;4974736;28;20471;-63
2021/04/12 13:59:09;;;;;;;3.30;1.60;;;;;;;;;;4972517;28;20513;-64
2021/04/12 14:01:42;;;;;;;1.70;1.30;;;;;;;;;;4967832;28;20499;-64
2021/04/12 14:04:11;;;;;;;3.20;1.53;;;;;;;;;;4975073;28;20939;-64
2021/04/12 14:06:45;;;;;;;1.87;1.43;;;;;;;;;;4974287;28;20513;-64
2021/04/12 14:09:14;;;;;;;1.70;1.30;;;;;;;;;;4974695;28;20460;-63
2021/04/12 14:11:44;;;;;;;2.30;1.97;;;;;;;;;;4974597;28;20479;-63
2021/04/12 14:14:16;;;;;;;2.67;1.50;;;;;;;;;;4974672;28;20455;-63
2021/04/12 14:16:42;;;;;;;2.60;1.97;;;;;;;;;;4974224;28;20510;-64
2021/04/12 14:19:12;;;;;;;3.93;1.93;;;;;;;;;;4974516;28;20452;-63
2021/04/12 14:21:40;;;;;;;2.60;2.00;;;;;;;;;;4973625;28;20483;-63
2021/04/12 14:24:09;;;;;;;1.70;1.60;;;;;;;;;;4974248;28;20455;-64
2021/04/12 14:26:39;;;;;;;2.67;1.80;;;;;;;;;;4974450;28;20467;-63
2021/04/12 14:29:08;;;;;;;3.83;2.33;;;;;;;;;;4962256;28;20859;-61
2021/04/12 14:31:36;;;;;;;4.87;2.07;;;;;;;;;;4966348;28;20890;-63
2021/04/12 14:34:06;;;;;;;2.37;1.87;;;;;;;;;;4974177;28;20460;-63
2021/04/12 14:36:35;;;;;;;1.70;1.60;;;;;;;;;;4974421;28;20454;-65
2021/04/12 14:39:17;;;;;;;3.07;2.27;;;;;;;;;;4973589;28;20458;-65
2021/04/12 14:41:46;;;;;;;4.37;1.80;;;;;;;;;;4969693;28;20544;-63
2021/04/12 14:44:15;;;;;;;2.20;1.83;;;;;;;;;;4970843;28;20545;-64
2021/04/12 14:46:44;;;;;;;2.13;2.00;;;;;;;;;;4975865;28;20447;-64
2021/04/12 14:49:11;;;;;;;4.00;2.77;;;;;;;;;;4974469;28;20447;-64
2021/04/12 14:51:39;;;;;;;3.27;2.03;;;;;;;;;;4974120;28;20558;-64
2021/04/12 14:54:10;;;;;;;2.80;2.20;;;;;;;;;;4972348;28;20747;-64
2021/04/12 14:56:41;;;;;;;4.33;2.10;;;;;;;;;;4971398;28;20467;-64
2021/04/12 14:59:11;;;;;;;2.40;2.20;;;;;;;;;;4963248;28;20869;-63
2021/04/12 15:01:41;;;;;;;4.37;2.20;;;;;;;;;;4973416;28;20498;-64
2021/04/12 15:04:09;;;;;;;2.40;2.20;;;;;;;;;;4973373;28;20993;-64
2021/04/12 15:06:37;;;;;;;2.83;2.10;;;;;;;;;;4971467;28;20955;-64
2021/04/12 15:09:06;;;;;;;5.87;2.37;;;;;;;;;;4974200;28;20456;-65
2021/04/12 15:11:36;;;;;;;3.80;2.73;;;;;;;;;;4973240;28;21049;-64
2021/04/12 15:14:04;;;;;;;2.40;2.20;;;;;;;;;;4974337;28;20494;-64
2021/04/12 15:16:42;;;;;;;3.07;2.40;;;;;;;;;;4972725;28;20495;-64
2021/04/12 15:19:16;;;;;;;2.83;2.30;;;;;;;;;;4973151;28;20801;-64
2021/04/12 15:21:45;;;;;;;2.40;2.20;;;;;;;;;;4973038;28;20537;-64
2021/04/12 15:24:14;;;;;;;2.60;2.13;;;;;;;;;;4973462;28;20455;-64
2021/04/12 15:26:46;;;;;;;2.70;2.10;;;;;;;;;;4972867;28;20546;-64
2021/04/12 15:29:21;;;;;;;3.03;2.50;;;;;;;;;;4973802;28;20458;-64
2021/04/12 15:31:50;;;;;;;5.00;2.30;;;;;;;;;;4973247;28;20949;-64
2021/04/12 15:34:31;;;;;;;2.77;2.13;;;;;;;;;;4974425;28;20443;-64
2021/04/12 15:36:59;;;;;;;2.80;2.00;;;;;;;;;;4972798;28;20961;-64
2021/04/12 15:39:27;;;;;;;3.00;2.37;;;;;;;;;;4974021;28;20455;-64
2021/04/12 15:41:55;;;;;;;5.27;2.80;;;;;;;;;;4975052;28;20471;-64